Washington, Nebraska
Current Conditions -  °F | °C
As of 5:35 AM on Saturday 22 Nov 2014 (Local Time) from KBTA Reporting Station
Haze Haze  
Wind Chill: 30°   Ceiling: 500
Heat Index: 38°   Visibility: 5mi
Dew Point: 36°   Wind: 13mph
Humidity: 91%   Direction: 200°SSW
Pressure: 29.87"   Gusts: NA
Location:  41.4°N, 96.21°W
Report Text: KBTA 221135Z AUTO 20011KT 5SM BR OVC005 04/02 A2987 RMK AO2 LTG DSNT S T00350022
Loading
Personal Weather Stations






























Interactive Weather Map New forecast layout! Learn more

10-Day Weather Forecast

Advertisements
Track Severe Weather on mobile